Terminal Aerodrome Forecast
Issued by NWS

Home | Current Version | Previous Version | Graphics & Text | Print | Product List | Glossary On
Versions: 1 2 3 4 5 6 7 8 9 10 11 12 13 14 15 16 17 18
000
FTUS43 KMPX 132329
TAFAXN
TAF
KAXN 132329Z 1400/1424 12011KT P6SM -SHRA VCTS SCT015 SCT035CB
      BKN040
      TEMPO 1400/1402 4SM SHRA BR OVC015
     FM140500 13008KT 5SM BR VCSH OVC025
     FM140800 13006KT P6SM OVC015
     FM141200 10003KT 3SM BR OVC003
     FM141500 09004KT P6SM SCT004 OVC006
     FM141800 08006KT P6SM BKN012
     FM142100 07005KT P6SM SCT020 BKN040=

USA.gov is the U.S. government's official web portal to all federal, state and local government web resources and services.